首页
METAR-TAF:

METAR-TAF

机场 :

舊金山國際機場

旧金山, 加利福尼亚州, 美国

纬度: 37-37-11N, 经度: 122-21-53W, 海拔: 3米

当前天气观测

该预报发布于47分钟前的21:56 UTC
风速17节,风向西
温度 14°C
湿度 63%
气压 1013 hPa
能見度: 16.1公里
少量云层高于2400英尺
散云层高于3000英尺
多云层高于8500英尺
阴天层高于20000英尺

METAR: KSFO 262156Z 26017KT 10SM FEW024 SCT030 BKN085 OVC200 14/07 A2990 RMK AO2 SLP124 T01390067

时间: 15:43 (22:43 UTC)

预报

该预报发布于1小时和43分钟前的21:00 UTC
预报有效从26日的 21点(UTC)到 27日的 24点(UTC)
风速17节,风向西,有时为24节阵风
能見度: 10公里
少量云层高于2500英尺
散云层高于3500英尺
多云层高于5000英尺
附近有阵雨
从 26日的 2200点(UTC)
风速14节,风向西,有时为21节阵风
能見度: 10公里
散云层高于4000英尺
多云层高于5000英尺, 积雨云.
小阵雨, 附近有雷暴
从 27日的 0400点(UTC)
风速9节,风向西
能見度: 10公里
少量云层高于2500英尺
散云层高于4000英尺
从 27日的 0900点(UTC)
风速5节,风向西转西南
能見度: 10公里
散云层高于1500英尺
多云层高于2000英尺
阴天层高于2500英尺
从 27日的 1700点(UTC)
风速6节,风向西
能見度: 10公里
少量云层高于2000英尺
散云层高于3000英尺
从 27日的 2000点(UTC)
风速11节,风向西
能見度: 10公里
少量云层高于2500英尺
少量云层高于3500英尺

TAF: KSFO 262100Z 2621/2724 28017G24KT P6SM VCSH FEW025 SCT035 BKN050 FM262200 27014G21KT P6SM -SHRA VCTS SCT040 BKN050CB FM270400 26009KT P6SM FEW025 SCT040 FM270900 25005KT P6SM SCT015 BKN020 OVC025 FM271700 26006KT P6SM FEW020 SCT030 FM272000 27011KT P6SM FEW025 FEW035

超过4000个机场的气象观测和天气预报(METAR&TAF报告)。

可查询的气象台以黄色和红色小点在地图上表示。

将鼠标移到小点上方,可查看气象台名称。

然后点击查看天气观测和预报。

如需切换地图:点击带黑十字的绿色按钮放大地图;点击带横线的绿色按钮缩小地图;或者点击绿色箭头查看邻近地区的地图。


METAR-TAF: